CDT,Max TemperatureF,Mean TemperatureF,Min TemperatureF,Max Dew PointF,MeanDew PointF,Min DewpointF,Max Humidity, Mean Humidity, Min Humidity, Max Sea Level PressureIn, Mean Sea Level PressureIn, Min Sea Level PressureIn, Max VisibilityMiles, Mean VisibilityMiles, Min VisibilityMiles, Max Wind SpeedMPH, Mean Wind SpeedMPH, Max Gust SpeedMPH,PrecipitationIn, CloudCover, Events, WindDirDegrees
2013-9-1,81,72,65,71,66,62,95,87,68,29.81,29.78,29.75,7,5,1,10,3,,0.00,4,Rain,235
2013-9-2,86,73,59,68,61,52,97,72,38,29.95,29.86,29.77,10,7,4,10,6,17,0.00,1,,336
2013-9-3,80,64,49,66,53,46,94,73,40,30.08,30.03,29.95,10,7,5,6,2,,0.00,1,,11
2013-9-4,85,66,46,61,52,43,90,66,34,30.15,30.10,30.05,10,6,2,9,1,,0.00,0,,258
2013-9-5,91,72,53,66,56,48,87,64,37,30.19,30.16,30.12,10,7,1,7,2,,0.00,1,,34
2013-9-6,90,72,56,71,58,49,81,66,42,30.20,30.13,30.04,10,8,5,6,3,,0.00,1,,120
2013-9-7,90,74,57,65,60,53,89,67,37,30.05,29.99,29.92,10,6,2,12,3,17,0.00,0,Rain,220
2013-9-8,90,76,62,72,63,55,86,69,48,29.97,29.94,29.91,10,6,2,7,2,,0.00,1,,126
2013-9-9,95,80,64,71,66,59,90,68,40,29.95,29.92,29.87,7,5,0,14,5,20,0.00,1,Fog,190
2013-9-10,99,83,67,72,67,62,93,65,31,30.07,30.03,29.95,10,6,2,14,6,18,0.00,0,,212
2013-9-11,97,82,68,70,63,57,94,61,28,30.10,30.04,29.98,10,7,3,17,6,23,0.00,0,,234
2013-9-12,88,72,55,68,60,46,94,71,32,30.03,29.98,29.90,10,8,5,20,6,29,0.07,1,Rain,307
2013-9-13,73,58,42,53,45,35,91,65,37,30.12,30.08,30.03,10,10,10,14,7,24,0.00,2,,11
2013-9-14,76,56,36,53,38,30,89,60,27,30.18,30.11,30.05,10,9,5,8,3,,0.00,0,,118
2013-9-15,79,60,40,57,46,32,93,66,31,30.08,30.04,29.97,10,8,5,13,3,21,0.13,3,Rain,221
2013-9-16,69,58,45,56,51,40,94,78,56,30.29,30.23,30.09,10,8,2,12,7,18,0.00,5,,43
2013-9-17,78,62,45,64,49,39,90,69,38,30.29,30.22,30.10,10,8,5,8,5,,0.00,1,Rain,101
2013-9-18,86,72,57,64,59,49,88,65,43,30.10,30.03,29.97,10,7,4,12,5,,0.00,2,Rain,180
2013-9-19,89,77,65,71,67,62,94,76,46,30.01,29.95,29.85,7,5,1,14,8,23,0.68,2,Rain,168
2013-9-20,76,66,56,68,64,52,94,87,69,29.88,29.84,29.80,10,7,3,14,8,21,0.35,3,Rain,246
2013-9-21,72,59,46,53,46,37,97,69,36,29.92,29.85,29.80,10,9,7,14,7,20,0.01,0,Rain,325
2013-9-22,75,56,38,54,43,33,91,64,36,30.02,29.97,29.93,10,8,3,8,3,,0.00,0,,48
2013-9-23,77,59,41,62,42,30,83,60,33,30.08,30.03,29.99,10,9,4,8,5,16,0.00,0,,100
2013-9-24,80,62,43,62,46,32,80,61,39,30.02,29.95,29.87,10,8,4,9,5,,0.00,0,,91
2013-9-25,82,66,51,58,51,46,83,63,37,29.92,29.88,29.85,10,8,5,7,5,,0.00,1,,65
2013-9-26,83,65,47,64,48,40,87,61,28,30.06,30.00,29.92,10,7,5,8,4,,0.00,0,,77
2013-9-27,84,66,47,61,46,31,81,55,30,30.15,30.09,30.05,10,8,5,12,3,9,0.00,0,,124
2013-9-28,84,66,49,57,50,41,85,59,33,30.10,30.03,29.96,10,9,7,18,5,26,0.00,2,,176
2013-9-29,76,62,48,62,52,40,95,69,36,30.02,29.98,29.95,10,9,5,13,9,21,0.20,4,Rain,351
2013-9-30,77,60,44,59,52,40,94,78,45,30.00,29.95,29.89,10,6,0,12,4,,0.00,3,Fog-Rain,196